Skip Navigation Links Skip Navigation Links

Current Weather

Allaire, Belmar/Farmingdale, N.J.

For information only: do not use for flight planning or navigation.
Latest weather
Observation time Saturday, January 23, 2021 9:56 PM EST
Local time Saturday, January 23, 2021 10:55 PM EST
Flight conditions Visual Meteorological Conditions
Winds
Wind direction West-Northwest (300°)
Wind speed 10 mph
Peak wind speed 30 mph, 9:01 PM
Peak wind direction Northwest (310°)
Visibility 10 mi.
Sky condition
Ceiling unlimited
Sky clear
Temperature 25°F
Dewpoint 9°F
Altimeter 30.19 in.Hg
Pressure change last 3 hours-0.02 in.Hg
Pressure rising more slowly
Derived measurements
Relative humidity 50%
Wind chill 15°F
Density altitude -2441 ft.
Sea-level pressure 30.19 in.Hg
Remarks
Fully automated report.
Automated weather observing station with precipitation discriminator.
Freezing rain sensor not operating.
METAR KBLM 240256Z AUTO 30009KT 10SM CLR M04/M13 A3019 RMK AO2 PK WND 31026/0201 SLP225 T10391128 51008 FZRANO

Settings

Location code

InnerDrive.Weather 4.0.6770.0 Release CLR 4.0.30319.42000
Copyright ©2018 Inner Drive Technology. All rights reserved. Portions Copyright ©1986-2018 David Braverman.

Find weather

Site navigation


Skip Navigation Links

Place info

Page info

PayPal - The safer, easier way to pay online!

Return home.

Copyright ©2021 Inner Drive Technology. Purveyors of fine, hand-crafted computer software. Page printed 2021-01-24T03:55:46 UTC.